sensor_id;sensor_type;location;lat;lon;timestamp;pressure;altitude;pressure_sealevel;temperature;humidity
54948;BME280;41113;41.882;12.530;2023-04-03T00:00:58;100162.06;;;11.24;87.75
54948;BME280;41113;41.882;12.530;2023-04-03T00:03:24;100160.38;;;11.23;87.77
54948;BME280;41113;41.882;12.530;2023-04-03T00:05:49;100151.75;;;11.19;88.21
54948;BME280;41113;41.882;12.530;2023-04-03T00:08:15;100149.53;;;11.15;88.42
54948;BME280;41113;41.882;12.530;2023-04-03T00:10:41;100142.09;;;11.09;88.35
54948;BME280;41113;41.882;12.530;2023-04-03T00:13:07;100145.47;;;11.11;88.73
54948;BME280;41113;41.882;12.530;2023-04-03T00:15:34;100140.41;;;11.08;88.99
54948;BME280;41113;41.882;12.530;2023-04-03T00:18:00;100136.72;;;11.09;88.73
54948;BME280;41113;41.882;12.530;2023-04-03T00:20:25;100142.69;;;11.03;87.97
54948;BME280;41113;41.882;12.530;2023-04-03T00:22:52;100131.09;;;11.02;87.31
54948;BME280;41113;41.882;12.530;2023-04-03T00:25:18;100130.34;;;11.10;86.49
54948;BME280;41113;41.882;12.530;2023-04-03T00:27:43;100133.03;;;11.10;85.18
54948;BME280;41113;41.882;12.530;2023-04-03T00:30:11;100129.66;;;11.08;84.92
54948;BME280;41113;41.882;12.530;2023-04-03T00:32:37;100131.94;;;11.03;84.05
54948;BME280;41113;41.882;12.530;2023-04-03T00:35:03;100125.66;;;11.12;84.45
54948;BME280;41113;41.882;12.530;2023-04-03T00:37:29;100124.41;;;11.24;83.05
54948;BME280;41113;41.882;12.530;2023-04-03T00:39:55;100116.09;;;11.35;82.86
54948;BME280;41113;41.882;12.530;2023-04-03T00:42:20;100114.03;;;11.47;80.97
54948;BME280;41113;41.882;12.530;2023-04-03T00:47:13;100097.81;;;11.57;79.28
54948;BME280;41113;41.882;12.530;2023-04-03T00:49:41;100100.66;;;11.55;78.00
54948;BME280;41113;41.882;12.530;2023-04-03T00:52:12;100095.06;;;11.48;77.92
54948;BME280;41113;41.882;12.530;2023-04-03T00:54:41;100094.94;;;11.58;77.33
54948;BME280;41113;41.882;12.530;2023-04-03T00:57:07;100094.94;;;11.58;77.98
54948;BME280;41113;41.882;12.530;2023-04-03T00:59:36;100092.75;;;11.53;76.72
54948;BME280;41113;41.882;12.530;2023-04-03T01:02:04;100095.47;;;11.62;76.98
54948;BME280;41113;41.882;12.530;2023-04-03T01:04:32;100087.47;;;11.70;76.24
54948;BME280;41113;41.882;12.530;2023-04-03T01:07:05;100097.63;;;11.76;76.25
54948;BME280;41113;41.882;12.530;2023-04-03T01:09:32;100093.31;;;11.65;75.60
54948;BME280;41113;41.882;12.530;2023-04-03T01:14:49;100081.84;;;11.37;74.51
54948;BME280;41113;41.882;12.530;2023-04-03T01:17:28;100088.94;;;11.38;74.15
54948;BME280;41113;41.882;12.530;2023-04-03T01:25:23;100085.09;;;11.23;71.79
54948;BME280;41113;41.882;12.530;2023-04-03T01:27:49;100083.41;;;11.22;71.65
54948;BME280;41113;41.882;12.530;2023-04-03T01:30:18;100077.41;;;11.28;72.05
54948;BME280;41113;41.882;12.530;2023-04-03T01:32:44;100079.78;;;11.31;70.91
54948;BME280;41113;41.882;12.530;2023-04-03T01:35:09;100080.47;;;11.33;71.55
54948;BME280;41113;41.882;12.530;2023-04-03T01:37:35;100079.78;;;11.31;71.08
54948;BME280;41113;41.882;12.530;2023-04-03T01:40:00;100075.88;;;11.26;70.11
54948;BME280;41113;41.882;12.530;2023-04-03T01:42:26;100083.41;;;11.22;69.68
54948;BME280;41113;41.882;12.530;2023-04-03T01:44:51;100075.72;;;11.27;70.19
54948;BME280;41113;41.882;12.530;2023-04-03T01:47:16;100074.03;;;11.26;69.70
54948;BME280;41113;41.882;12.530;2023-04-03T01:49:42;100080.03;;;11.20;69.75
54948;BME280;41113;41.882;12.530;2023-04-03T01:52:07;100081.72;;;11.21;69.85
54948;BME280;41113;41.882;12.530;2023-04-03T01:54:33;100082.56;;;11.21;69.29
54948;BME280;41113;41.882;12.530;2023-04-03T01:56:58;100072.66;;;11.22;70.22
54948;BME280;41113;41.882;12.530;2023-04-03T01:59:23;100080.47;;;11.33;70.34
54948;BME280;41113;41.882;12.530;2023-04-03T02:01:49;100082.47;;;11.31;69.28
54948;BME280;41113;41.882;12.530;2023-04-03T02:04:14;100072.03;;;11.28;69.80
54948;BME280;41113;41.882;12.530;2023-04-03T02:06:40;100078.03;;;11.22;69.64
54948;BME280;41113;41.882;12.530;2023-04-03T02:09:05;100075.19;;;11.23;69.49
54948;BME280;41113;41.882;12.530;2023-04-03T02:11:31;100073.88;;;11.28;69.48
54948;BME280;41113;41.882;12.530;2023-04-03T02:13:56;100073.28;;;11.16;69.81
54948;BME280;41113;41.882;12.530;2023-04-03T02:16:21;100065.59;;;11.03;69.58
54948;BME280;41113;41.882;12.530;2023-04-03T02:18:47;100068.75;;;10.99;70.53
54948;BME280;41113;41.882;12.530;2023-04-03T02:21:12;100065.53;;;10.95;70.38
54948;BME280;41113;41.882;12.530;2023-04-03T02:23:38;100054.47;;;10.98;70.32
54948;BME280;41113;41.882;12.530;2023-04-03T02:26:05;100052.78;;;10.97;70.06
54948;BME280;41113;41.882;12.530;2023-04-03T02:28:31;100054.31;;;11.00;70.26
54948;BME280;41113;41.882;12.530;2023-04-03T02:30:56;100048.94;;;11.00;70.32
54948;BME280;41113;41.882;12.530;2023-04-03T02:33:22;100048.66;;;10.85;70.35
54948;BME280;41113;41.882;12.530;2023-04-03T02:35:52;100047.44;;;10.79;70.87
54948;BME280;41113;41.882;12.530;2023-04-03T02:38:18;100045.06;;;10.76;70.59
54948;BME280;41113;41.882;12.530;2023-04-03T02:40:43;100050.13;;;10.79;70.73
54948;BME280;41113;41.882;12.530;2023-04-03T02:43:09;100048.44;;;10.78;70.80
54948;BME280;41113;41.882;12.530;2023-04-03T02:45:35;100046.97;;;10.84;70.67
54948;BME280;41113;41.882;12.530;2023-04-03T02:48:00;100052.72;;;10.89;70.79
54948;BME280;41113;41.882;12.530;2023-04-03T02:50:25;100048.88;;;10.91;70.88
54948;BME280;41113;41.882;12.530;2023-04-03T02:52:51;100045.50;;;10.89;70.26
54948;BME280;41113;41.882;12.530;2023-04-03T02:55:16;100046.13;;;10.83;69.69
54948;BME280;41113;41.882;12.530;2023-04-03T02:57:42;100035.91;;;10.87;69.95
54948;BME280;41113;41.882;12.530;2023-04-03T03:00:07;100038.44;;;10.88;69.80
54948;BME280;41113;41.882;12.530;2023-04-03T03:02:34;100036.44;;;10.90;70.03
54948;BME280;41113;41.882;12.530;2023-04-03T03:04:59;100037.44;;;10.89;69.31
54948;BME280;41113;41.882;12.530;2023-04-03T03:07:24;100038.50;;;10.97;69.99
54948;BME280;41113;41.882;12.530;2023-04-03T03:09:51;100037.50;;;10.98;69.84
54948;BME280;41113;41.882;12.530;2023-04-03T03:12:16;100033.28;;;10.95;69.37
54948;BME280;41113;41.882;12.530;2023-04-03T03:14:46;100028.75;;;10.96;69.61
54948;BME280;41113;41.882;12.530;2023-04-03T03:17:12;100031.69;;;10.84;68.91
54948;BME280;41113;41.882;12.530;2023-04-03T03:19:37;100026.47;;;10.83;70.19
54948;BME280;41113;41.882;12.530;2023-04-03T03:22:02;100027.31;;;10.83;69.76
54948;BME280;41113;41.882;12.530;2023-04-03T03:24:28;100021.88;;;10.75;69.67
54948;BME280;41113;41.882;12.530;2023-04-03T03:26:53;100015.91;;;10.81;69.44
54948;BME280;41113;41.882;12.530;2023-04-03T03:29:18;100017.09;;;10.69;69.16
54948;BME280;41113;41.882;12.530;2023-04-03T03:31:44;100018.63;;;10.72;68.97
54948;BME280;41113;41.882;12.530;2023-04-03T03:34:09;100025.16;;;10.69;69.61
54948;BME280;41113;41.882;12.530;2023-04-03T03:36:35;100025.00;;;10.71;69.73
54948;BME280;41113;41.882;12.530;2023-04-03T03:39:01;100025.84;;;10.71;69.32
54948;BME280;41113;41.882;12.530;2023-04-03T03:41:26;100021.88;;;10.75;69.56
54948;BME280;41113;41.882;12.530;2023-04-03T03:43:52;100028.69;;;10.70;69.46
54948;BME280;41113;41.882;12.530;2023-04-03T03:46:17;100024.78;;;10.64;69.39
54948;BME280;41113;41.882;12.530;2023-04-03T03:48:43;100023.88;;;10.73;69.51
54948;BME280;41113;41.882;12.530;2023-04-03T03:51:08;100024.25;;;10.78;69.25
54948;BME280;41113;41.882;12.530;2023-04-03T03:53:33;100022.16;;;10.72;69.49
54948;BME280;41113;41.882;12.530;2023-04-03T03:55:59;100027.84;;;10.69;69.13
54948;BME280;41113;41.882;12.530;2023-04-03T03:58:24;100012.41;;;10.71;69.61
54948;BME280;41113;41.882;12.530;2023-04-03T04:00:50;100014.09;;;10.72;69.49
54948;BME280;41113;41.882;12.530;2023-04-03T04:03:15;100018.78;;;10.70;69.20
54948;BME280;41113;41.882;12.530;2023-04-03T04:05:41;100008.00;;;10.80;69.54
54948;BME280;41113;41.882;12.530;2023-04-03T04:08:07;100020.66;;;10.87;68.75
54948;BME280;41113;41.882;12.530;2023-04-03T04:10:33;100016.97;;;10.88;68.53
54948;BME280;41113;41.882;12.530;2023-04-03T04:12:58;100011.66;;;10.97;68.72
54948;BME280;41113;41.882;12.530;2023-04-03T04:15:24;100016.09;;;11.06;68.46
54948;BME280;41113;41.882;12.530;2023-04-03T04:17:51;100014.56;;;11.03;68.04
54948;BME280;41113;41.882;12.530;2023-04-03T04:20:16;100019.41;;;11.00;68.74
54948;BME280;41113;41.882;12.530;2023-04-03T04:22:41;100009.81;;;10.97;68.82
54948;BME280;41113;41.882;12.530;2023-04-03T04:25:07;100011.34;;;11.00;68.95
54948;BME280;41113;41.882;12.530;2023-04-03T04:27:33;100013.03;;;11.01;68.21
54948;BME280;41113;41.882;12.530;2023-04-03T04:29:58;100012.66;;;10.96;68.22
54948;BME280;41113;41.882;12.530;2023-04-03T04:32:23;100012.44;;;11.07;68.54
54948;BME280;41113;41.882;12.530;2023-04-03T04:34:49;100000.22;;;10.95;68.65
54948;BME280;41113;41.882;12.530;2023-04-03T04:37:15;100001.75;;;10.97;68.82
54948;BME280;41113;41.882;12.530;2023-04-03T04:39:40;100005.28;;;10.98;68.89
54948;BME280;41113;41.882;12.530;2023-04-03T04:42:06;100003.28;;;11.00;68.63
54948;BME280;41113;41.882;12.530;2023-04-03T04:44:32;100007.34;;;11.04;68.58
54948;BME280;41113;41.882;12.530;2023-04-03T04:46:57;100004.13;;;11.00;68.47
54948;BME280;41113;41.882;12.530;2023-04-03T04:49:23;100003.19;;;11.09;68.29
54948;BME280;41113;41.882;12.530;2023-04-03T04:51:48;99999.50;;;11.10;68.16
54948;BME280;41113;41.882;12.530;2023-04-03T04:54:13;100000.34;;;11.11;68.18
54948;BME280;41113;41.882;12.530;2023-04-03T04:56:39;99997.00;;;11.09;68.20
54948;BME280;41113;41.882;12.530;2023-04-03T04:59:04;99999.00;;;11.07;68.02
54948;BME280;41113;41.882;12.530;2023-04-03T05:01:29;100001.19;;;11.11;67.94
54948;BME280;41113;41.882;12.530;2023-04-03T05:03:55;99996.03;;;11.18;67.42
54948;BME280;41113;41.882;12.530;2023-04-03T05:06:20;100000.47;;;11.27;67.34
54948;BME280;41113;41.882;12.530;2023-04-03T05:08:46;99992.91;;;11.57;66.23
54948;BME280;41113;41.882;12.530;2023-04-03T05:11:11;99981.69;;;12.62;63.75
54948;BME280;41113;41.882;12.530;2023-04-03T05:13:36;99991.50;;;13.03;61.66
54948;BME280;41113;41.882;12.530;2023-04-03T05:16:03;99988.66;;;13.21;60.48
54948;BME280;41113;41.882;12.530;2023-04-03T05:18:29;99990.66;;;13.11;60.99
54948;BME280;41113;41.882;12.530;2023-04-03T05:20:54;99991.34;;;13.37;61.09
54948;BME280;41113;41.882;12.530;2023-04-03T05:23:20;99987.03;;;13.76;59.67
54948;BME280;41113;41.882;12.530;2023-04-03T05:25:45;99991.84;;;13.88;59.53
54948;BME280;41113;41.882;12.530;2023-04-03T05:28:12;99996.03;;;13.44;60.09
54948;BME280;41113;41.882;12.530;2023-04-03T05:30:37;99987.50;;;13.79;60.23
54948;BME280;41113;41.882;12.530;2023-04-03T05:33:03;99990.16;;;13.87;59.81
54948;BME280;41113;41.882;12.530;2023-04-03T05:35:28;99992.84;;;13.95;59.01
54948;BME280;41113;41.882;12.530;2023-04-03T05:37:54;99991.31;;;13.46;58.99
54948;BME280;41113;41.882;12.530;2023-04-03T05:40:19;99990.63;;;13.52;59.27
54948;BME280;41113;41.882;12.530;2023-04-03T05:42:45;99993.63;;;13.57;59.53
54948;BME280;41113;41.882;12.530;2023-04-03T05:45:10;99985.19;;;13.60;60.04
54948;BME280;41113;41.882;12.530;2023-04-03T05:47:36;99983.84;;;13.56;60.46
54948;BME280;41113;41.882;12.530;2023-04-03T05:50:02;99991.16;;;13.39;60.05
54948;BME280;41113;41.882;12.530;2023-04-03T05:52:30;99988.22;;;13.73;60.58
54948;BME280;41113;41.882;12.530;2023-04-03T05:54:58;99993.47;;;14.06;59.67
54948;BME280;41113;41.882;12.530;2023-04-03T05:57:25;99986.09;;;13.91;58.07
54948;BME280;41113;41.882;12.530;2023-04-03T05:59:50;99984.28;;;14.23;59.32
54948;BME280;41113;41.882;12.530;2023-04-03T06:02:18;99976.19;;;14.54;58.09
54948;BME280;41113;41.882;12.530;2023-04-03T06:04:44;99985.31;;;14.76;55.96
54948;BME280;41113;41.882;12.530;2023-04-03T06:07:30;99984.25;;;15.22;54.15
54948;BME280;41113;41.882;12.530;2023-04-03T06:09:56;99990.59;;;15.15;54.74
54948;BME280;41113;41.882;12.530;2023-04-03T06:12:22;99984.78;;;15.03;55.28
54948;BME280;41113;41.882;12.530;2023-04-03T06:14:48;99986.50;;;14.50;55.29
54948;BME280;41113;41.882;12.530;2023-04-03T06:17:16;99977.38;;;14.51;56.30
54948;BME280;41113;41.882;12.530;2023-04-03T06:19:43;99976.94;;;14.71;56.14
54948;BME280;41113;41.882;12.530;2023-04-03T06:22:09;99994.09;;;14.78;55.80
54948;BME280;41113;41.882;12.530;2023-04-03T06:24:34;99996.13;;;14.76;55.61
54948;BME280;41113;41.882;12.530;2023-04-03T06:27:02;99996.00;;;14.92;55.28
54948;BME280;41113;41.882;12.530;2023-04-03T06:29:27;99997.81;;;14.77;54.97
54948;BME280;41113;41.882;12.530;2023-04-03T06:31:53;99994.09;;;14.78;56.11
54948;BME280;41113;41.882;12.530;2023-04-03T06:34:18;100000.94;;;14.66;56.41
54948;BME280;41113;41.882;12.530;2023-04-03T06:36:44;99999.56;;;14.70;55.91
54948;BME280;41113;41.882;12.530;2023-04-03T06:39:15;99999.50;;;14.78;55.75
54948;BME280;41113;41.882;12.530;2023-04-03T06:41:41;100002.50;;;14.83;55.53
54948;BME280;41113;41.882;12.530;2023-04-03T06:44:06;99993.72;;;14.81;55.97
54948;BME280;41113;41.882;12.530;2023-04-03T06:46:37;99994.66;;;14.96;55.24
54948;BME280;41113;41.882;12.530;2023-04-03T06:49:03;99995.59;;;15.03;55.21
54948;BME280;41113;41.882;12.530;2023-04-03T06:51:29;100004.28;;;15.13;55.06
54948;BME280;41113;41.882;12.530;2023-04-03T06:53:57;100005.13;;;14.91;54.95
54948;BME280;41113;41.882;12.530;2023-04-03T06:56:23;99995.97;;;15.00;55.38
54948;BME280;41113;41.882;12.530;2023-04-03T06:58:49;100005.69;;;15.09;55.49
54948;BME280;41113;41.882;12.530;2023-04-03T07:01:17;99997.47;;;15.03;55.49
54948;BME280;41113;41.882;12.530;2023-04-03T07:03:44;99998.19;;;14.97;54.76
54948;BME280;41113;41.882;12.530;2023-04-03T07:06:12;99995.63;;;14.95;55.04
54948;BME280;41113;41.882;12.530;2023-04-03T07:08:38;100004.53;;;15.04;54.67
54948;BME280;41113;41.882;12.530;2023-04-03T07:11:04;99996.25;;;15.05;54.58
54948;BME280;41113;41.882;12.530;2023-04-03T07:13:30;100003.09;;;14.93;54.52
54948;BME280;41113;41.882;12.530;2023-04-03T07:15:56;99995.88;;;15.08;53.49
54948;BME280;41113;41.882;12.530;2023-04-03T07:18:22;99998.41;;;15.10;53.34
54948;BME280;41113;41.882;12.530;2023-04-03T07:20:48;99998.44;;;15.24;52.91
54948;BME280;41113;41.882;12.530;2023-04-03T07:23:13;100012.44;;;15.28;53.05
54948;BME280;41113;41.882;12.530;2023-04-03T07:25:47;99981.16;;;15.25;52.54
54948;BME280;41113;41.882;12.530;2023-04-03T07:28:12;99983.81;;;15.34;52.44
54948;BME280;41113;41.882;12.530;2023-04-03T07:30:46;99990.91;;;15.35;51.75
54948;BME280;41113;41.882;12.530;2023-04-03T07:33:13;99989.22;;;15.34;51.84
54948;BME280;41113;41.882;12.530;2023-04-03T07:35:39;99991.66;;;15.43;52.17
54948;BME280;41113;41.882;12.530;2023-04-03T07:38:05;99976.00;;;15.39;50.96
54948;BME280;41113;41.882;12.530;2023-04-03T07:40:31;99981.88;;;15.42;51.33
54948;BME280;41113;41.882;12.530;2023-04-03T07:42:56;99986.91;;;15.45;51.39
54948;BME280;41113;41.882;12.530;2023-04-03T07:45:24;99980.66;;;15.45;50.90
54948;BME280;41113;41.882;12.530;2023-04-03T07:47:49;99992.13;;;15.47;50.95
54948;BME280;41113;41.882;12.530;2023-04-03T07:50:15;100004.44;;;15.49;51.23
54948;BME280;41113;41.882;12.530;2023-04-03T07:52:41;99997.13;;;15.58;51.25
54948;BME280;41113;41.882;12.530;2023-04-03T07:55:07;99990.59;;;15.67;51.57
54948;BME280;41113;41.882;12.530;2023-04-03T07:57:32;99992.28;;;15.68;51.29
54948;BME280;41113;41.882;12.530;2023-04-03T07:59:57;99997.13;;;15.73;51.63
54948;BME280;41113;41.882;12.530;2023-04-03T08:02:23;100001.44;;;15.67;50.41
54948;BME280;41113;41.882;12.530;2023-04-03T08:04:51;99999.75;;;15.66;50.83
54948;BME280;41113;41.882;12.530;2023-04-03T08:07:16;99991.44;;;15.68;51.02
54948;BME280;41113;41.882;12.530;2023-04-03T08:09:42;99997.97;;;15.73;51.14
54948;BME280;41113;41.882;12.530;2023-04-03T08:12:07;99999.09;;;15.79;51.01
54948;BME280;41113;41.882;12.530;2023-04-03T08:14:32;100000.88;;;15.86;51.30
54948;BME280;41113;41.882;12.530;2023-04-03T08:17:02;99998.72;;;15.82;50.57
54948;BME280;41113;41.882;12.530;2023-04-03T08:19:29;99993.75;;;15.85;50.34
54948;BME280;41113;41.882;12.530;2023-04-03T08:21:54;99992.28;;;15.98;50.91
54948;BME280;41113;41.882;12.530;2023-04-03T08:24:20;99988.16;;;16.02;49.94
54948;BME280;41113;41.882;12.530;2023-04-03T08:26:45;99989.72;;;16.11;50.11
54948;BME280;41113;41.882;12.530;2023-04-03T08:29:12;99995.53;;;16.08;48.53
54948;BME280;41113;41.882;12.530;2023-04-03T08:31:38;99995.81;;;16.13;48.63
54948;BME280;41113;41.882;12.530;2023-04-03T08:34:04;99996.25;;;16.31;48.62
54948;BME280;41113;41.882;12.530;2023-04-03T08:36:30;99993.16;;;16.34;46.87
54948;BME280;41113;41.882;12.530;2023-04-03T08:38:56;99983.22;;;16.41;47.35
54948;BME280;41113;41.882;12.530;2023-04-03T08:41:42;99993.03;;;16.42;45.72
54948;BME280;41113;41.882;12.530;2023-04-03T08:46:57;99976.72;;;16.72;45.09
54948;BME280;41113;41.882;12.530;2023-04-03T08:49:31;99985.34;;;16.82;44.33
54948;BME280;41113;41.882;12.530;2023-04-03T08:51:59;99983.81;;;16.94;43.08
54948;BME280;41113;41.882;12.530;2023-04-03T08:54:48;99979.63;;;17.20;43.89
54948;BME280;41113;41.882;12.530;2023-04-03T08:57:14;99988.28;;;17.30;43.43
54948;BME280;41113;41.882;12.530;2023-04-03T08:59:39;99967.06;;;17.40;43.58
54948;BME280;41113;41.882;12.530;2023-04-03T09:02:26;99982.91;;;17.36;42.55
54948;BME280;41113;41.882;12.530;2023-04-03T09:04:53;99996.69;;;17.35;42.13
54948;BME280;41113;41.882;12.530;2023-04-03T09:07:26;99969.50;;;17.28;42.49
54948;BME280;41113;41.882;12.530;2023-04-03T09:09:59;99975.84;;;17.42;42.33
54948;BME280;41113;41.882;12.530;2023-04-03T09:12:32;99977.63;;;17.56;42.17
54948;BME280;41113;41.882;12.530;2023-04-03T09:22:52;99975.69;;;17.50;40.25
54948;BME280;41113;41.882;12.530;2023-04-03T09:25:33;99970.63;;;17.68;40.49
54948;BME280;41113;41.882;12.530;2023-04-03T09:28:01;99979.25;;;17.79;40.13
54948;BME280;41113;41.882;12.530;2023-04-03T09:30:27;99969.84;;;17.81;40.00
54948;BME280;41113;41.882;12.530;2023-04-03T09:32:55;99962.00;;;17.93;39.80
54948;BME280;41113;41.882;12.530;2023-04-03T09:35:30;99965.75;;;17.92;38.54
54948;BME280;41113;41.882;12.530;2023-04-03T09:38:21;99959.06;;;17.94;38.65
54948;BME280;41113;41.882;12.530;2023-04-03T09:40:49;99956.97;;;17.90;37.97
54948;BME280;41113;41.882;12.530;2023-04-03T09:43:22;99973.06;;;17.91;37.23
54948;BME280;41113;41.882;12.530;2023-04-03T09:45:50;99954.06;;;17.98;37.41
54948;BME280;41113;41.882;12.530;2023-04-03T09:48:22;99958.72;;;18.11;37.80
54948;BME280;41113;41.882;12.530;2023-04-03T09:53:29;99953.66;;;18.01;36.64
54948;BME280;41113;41.882;12.530;2023-04-03T09:55:55;99953.69;;;18.08;37.11
54948;BME280;41113;41.882;12.530;2023-04-03T09:58:27;99943.72;;;18.21;37.18
54948;BME280;41113;41.882;12.530;2023-04-03T10:00:59;99943.72;;;18.21;36.65
54948;BME280;41113;41.882;12.530;2023-04-03T10:03:31;99933.69;;;18.28;36.54
54948;BME280;41113;41.882;12.530;2023-04-03T10:05:58;99934.78;;;18.41;36.75
54948;BME280;41113;41.882;12.530;2023-04-03T10:08:33;99936.03;;;18.38;36.28
54948;BME280;41113;41.882;12.530;2023-04-03T10:11:25;99945.84;;;18.32;35.86
54948;BME280;41113;41.882;12.530;2023-04-03T10:13:52;99922.84;;;18.42;36.62
54948;BME280;41113;41.882;12.530;2023-04-03T10:16:22;99912.81;;;18.42;36.58
54948;BME280;41113;41.882;12.530;2023-04-03T10:21:46;99919.13;;;18.56;35.98
54948;BME280;41113;41.882;12.530;2023-04-03T10:24:51;99912.84;;;18.55;35.19
54948;BME280;41113;41.882;12.530;2023-04-03T10:30:27;99904.50;;;18.57;35.66
54948;BME280;41113;41.882;12.530;2023-04-03T10:35:44;99901.94;;;18.49;34.86
54948;BME280;41113;41.882;12.530;2023-04-03T10:38:23;99890.44;;;18.47;35.46
54948;BME280;41113;41.882;12.530;2023-04-03T10:44:03;99876.84;;;18.47;35.14
54948;BME280;41113;41.882;12.530;2023-04-03T10:46:52;99893.56;;;18.50;35.32
54948;BME280;41113;41.882;12.530;2023-04-03T10:55:08;99880.66;;;18.65;34.84
54948;BME280;41113;41.882;12.530;2023-04-03T10:57:40;99868.97;;;18.65;35.53
54948;BME280;41113;41.882;12.530;2023-04-03T11:00:14;99866.44;;;18.83;35.25
54948;BME280;41113;41.882;12.530;2023-04-03T11:02:52;99865.19;;;18.79;34.67
54948;BME280;41113;41.882;12.530;2023-04-03T11:08:24;99898.47;;;18.68;34.34
54948;BME280;41113;41.882;12.530;2023-04-03T11:10:56;99868.53;;;18.75;34.37
54948;BME280;41113;41.882;12.530;2023-04-03T11:13:28;99862.47;;;18.79;34.72
54948;BME280;41113;41.882;12.530;2023-04-03T11:15:57;99854.31;;;18.79;34.34
54948;BME280;41113;41.882;12.530;2023-04-03T11:18:43;99840.50;;;18.87;34.43
54948;BME280;41113;41.882;12.530;2023-04-03T11:21:22;99860.19;;;18.89;34.08
54948;BME280;41113;41.882;12.530;2023-04-03T11:23:51;99863.94;;;18.88;35.05
54948;BME280;41113;41.882;12.530;2023-04-03T11:26:22;99852.22;;;18.94;35.07
54948;BME280;41113;41.882;12.530;2023-04-03T11:28:53;99866.88;;;18.87;35.18
54948;BME280;41113;41.882;12.530;2023-04-03T11:36:26;99845.53;;;18.64;34.56
54948;BME280;41113;41.882;12.530;2023-04-03T11:38:56;99841.31;;;18.81;34.73
54948;BME280;41113;41.882;12.530;2023-04-03T11:41:31;99842.16;;;18.82;34.24
54948;BME280;41113;41.882;12.530;2023-04-03T11:44:04;99831.06;;;18.83;34.70
54948;BME280;41113;41.882;12.530;2023-04-03T11:58:03;99830.03;;;18.64;34.20
54948;BME280;41113;41.882;12.530;2023-04-03T12:14:02;99815.81;;;18.69;35.16
54948;BME280;41113;41.882;12.530;2023-04-03T12:29:25;99818.06;;;18.52;34.09
54948;BME280;41113;41.882;12.530;2023-04-03T12:35:03;99811.41;;;18.55;34.29
54948;BME280;41113;41.882;12.530;2023-04-03T12:40:32;99794.03;;;18.56;34.86
54948;BME280;41113;41.882;12.530;2023-04-03T12:43:05;99801.97;;;18.77;34.43
54948;BME280;41113;41.882;12.530;2023-04-03T12:45:58;99805.94;;;18.81;33.16
54948;BME280;41113;41.882;12.530;2023-04-03T12:48:46;99790.72;;;18.67;32.93
54948;BME280;41113;41.882;12.530;2023-04-03T12:54:19;99816.84;;;18.61;32.64
54948;BME280;41113;41.882;12.530;2023-04-03T12:56:47;99820.78;;;18.52;32.46
54948;BME280;41113;41.882;12.530;2023-04-03T12:59:25;99793.59;;;18.46;32.87
54948;BME280;41113;41.882;12.530;2023-04-03T13:01:59;99792.56;;;18.47;32.72
54948;BME280;41113;41.882;12.530;2023-04-03T13:04:26;99786.28;;;18.53;32.76
54948;BME280;41113;41.882;12.530;2023-04-03T13:06:53;99791.31;;;18.56;32.68
54948;BME280;41113;41.882;12.530;2023-04-03T13:09:20;99785.66;;;18.57;33.21
54948;BME280;41113;41.882;12.530;2023-04-03T13:11:53;99776.91;;;18.62;33.18
54948;BME280;41113;41.882;12.530;2023-04-03T13:14:22;99779.00;;;18.67;33.14
54948;BME280;41113;41.882;12.530;2023-04-03T13:16:56;99775.22;;;18.61;32.95
54948;BME280;41113;41.882;12.530;2023-04-03T13:19:27;99761.81;;;18.73;33.57
54948;BME280;41113;41.882;12.530;2023-04-03T13:22:00;99767.25;;;18.53;32.84
54948;BME280;41113;41.882;12.530;2023-04-03T13:24:27;99773.97;;;18.57;33.22
54948;BME280;41113;41.882;12.530;2023-04-03T13:26:54;99755.53;;;18.59;33.47
54948;BME280;41113;41.882;12.530;2023-04-03T13:29:28;99793.81;;;18.51;33.45
54948;BME280;41113;41.882;12.530;2023-04-03T13:31:55;99760.97;;;18.52;33.82
54948;BME280;41113;41.882;12.530;2023-04-03T13:34:22;99762.63;;;18.53;34.09
54948;BME280;41113;41.882;12.530;2023-04-03T13:41:49;99766.88;;;18.62;34.12
54948;BME280;41113;41.882;12.530;2023-04-03T13:44:27;99755.56;;;18.65;33.69
54948;BME280;41113;41.882;12.530;2023-04-03T13:47:16;99762.69;;;18.67;33.51
54948;BME280;41113;41.882;12.530;2023-04-03T13:49:45;99764.75;;;18.58;34.02
54948;BME280;41113;41.882;12.530;2023-04-03T13:54:47;99772.91;;;18.45;33.96
54948;BME280;41113;41.882;12.530;2023-04-03T13:57:16;99767.25;;;18.40;34.40
54948;BME280;41113;41.882;12.530;2023-04-03T13:59:41;99760.56;;;18.29;34.40
54948;BME280;41113;41.882;12.530;2023-04-03T14:04:48;99761.41;;;18.29;34.23
54948;BME280;41113;41.882;12.530;2023-04-03T14:07:15;99761.41;;;18.29;34.28
54948;BME280;41113;41.882;12.530;2023-04-03T14:09:42;99753.25;;;18.29;34.08
54948;BME280;41113;41.882;12.530;2023-04-03T14:12:29;99764.34;;;18.21;33.92
54948;BME280;41113;41.882;12.530;2023-04-03T14:14:56;99756.41;;;18.26;34.07
54948;BME280;41113;41.882;12.530;2023-04-03T14:17:24;99764.13;;;18.29;33.84
54948;BME280;41113;41.882;12.530;2023-04-03T14:19:51;99755.56;;;18.26;33.88
54948;BME280;41113;41.882;12.530;2023-04-03T14:22:18;99754.28;;;18.42;34.38
54948;BME280;41113;41.882;12.530;2023-04-03T14:24:47;99760.16;;;18.39;34.56
54948;BME280;41113;41.882;12.530;2023-04-03T14:27:49;99764.31;;;18.41;34.41
54948;BME280;41113;41.882;12.530;2023-04-03T14:30:26;99752.00;;;18.25;34.56
54948;BME280;41113;41.882;12.530;2023-04-03T14:32:52;99740.50;;;18.23;34.39
54948;BME280;41113;41.882;12.530;2023-04-03T14:35:18;99748.88;;;18.22;34.38
54948;BME280;41113;41.882;12.530;2023-04-03T14:37:45;99748.88;;;18.22;34.81